Details From UHMA - Ugolny
To UHMM - Magadan Sokol
Flight Number -
Tags Generated
Created
Modified
Stats Distance 801 nm / 1,483 km
Max Altitude 0 ft / 0 m
Waypoints 4
Social Downloads 1
Likes 0
Share VATSIM

Download

Looking for another format? Having issues loading an existing format? Contact us
Advertisement - Login to hide

Notes

Generated

Route

UHMA LUMIR UHMM UHMM

ID Type Via Altitude Latitude Longitude Leg Dist Tot Dist Heading (true) Name
O UHMA APT - 0 ft / 0 m 64.71979˚ 177.73219˚ - 0 nm - -
LUMIR FIX - 0 ft / 0 m 63.66667˚ 167.38333˚ 277 nm 277 nm 262° / 252° -
UHMM FIX - 0 ft / 0 m 59.91000˚ 150.71667˚ 522 nm 799 nm 252° / 237° -
O UHMM APT - 0 ft / 0 m 59.91186˚ 150.68961˚ 0 nm 800 nm 278° / 278° -

Altitude Profile

Advertisement - Login to hide

Weather


0- 5 10 15 20 25 30 35+ Temperature / ° C

Clouds and Precipitation
Forecast for 2017-12-11 18:00 UTC. Updated 2 hours ago

Ground ~20,000 ft ~40,000 ft Winds

UHMA

Details ICAO UHMA (DYR)
Name UGOLNY
Region Russia
Timezone Asia/Anadyr (UTC+12.0)
Stats Elevation 194 ft / 59 m (AMSL)
Location 64.734950° 177.741483°
Runways 1
Magnetic Variation 1.434° E

METAR

UHMA 111500Z 01003MPS CAVOK M26/M29 Q1022 RMK END R01/02003MPS QFE763/1017

Decode

TAF

TAF UHMA 111348Z 1115/1215 02006MPS 9999 SCT030 TEMPO 1115/1215 32008G13MPS 2000 -SN BR SCT006 BKN020

Decode

Departure Runways

ID Width Length Bearing (true) Bearing (mag) Surface Threshold Offset Overrun Length
01 197 ft / 60 m 11,439 ft / 3,487 m 14.65° 13.22° Concrete 0 ft / 0 m 240 ft / 73 m
19 197 ft / 60 m 11,439 ft / 3,487 m 194.66° 193.23° Concrete 0 ft / 0 m 240 ft / 73 m

UHMM

Details ICAO UHMM (GDX)
Name Magadan Sokol
Region Russia
Timezone Asia/Magadan (UTC+11.0)
Stats Elevation 574 ft / 175 m (AMSL)
Location 59.910989° 150.720439°
Runways 1
Magnetic Variation 10.990° W

METAR

UHMM 111500Z 04003MPS 9999 FEW033 M09/M14 Q1022 RMK QFE752

Decode

TAF

TAF UHMM 111350Z 1115/1221 02007G13MPS 9999 BKN030CB OVC070 TEMPO 1115/1211 06003G09MPS 3100 -SHSN BKN015CB OVC070

Decode

Destination Runways

ID Width Length Bearing (true) Bearing (mag) Surface Threshold Offset Overrun Length
10 194 ft / 59 m 11,299 ft / 3,444 m 93.20° 104.19° Concrete 0 ft / 0 m 1,975 ft / 602 m
28 194 ft / 59 m 11,299 ft / 3,444 m 273.26° 284.25° Concrete 0 ft / 0 m 220 ft / 67 m

Approach Navaids

Runway Type Ident Frequency Range Bearing (true) Bearing (mag) Slope Elevation
10 Glidescope IFK 110.30 MHz 50 nm / 93 km 104.00° 114.99° 2.80° 574 ft / 175 m (AMSL)

Popular Alternatives